Time;durP1;ratioP1;P1;durP2;ratioP2;P2;SDS_P1;SDS_P2;PMS_P1;PMS_P2;Temp;Humidity;BMP_temperature;BMP_pressure;BME280_temperature;BME280_humidity;BME280_pressure;Samples;Min_cycle;Max_cycle;Signal;HPM_P1;HPM_P2
2020/01/04 00:00:34;;;;;;;9.2;5.8;;;;;;;3.2;80.24023;947.4084;;;;
2020/01/04 00:03:00;;;;;;;11.8;6.3;;;;;;;3.12;80.88672;947.4247;;;;
2020/01/04 00:05:25;;;;;;;10.3;6.2;;;;;;;3.34;80.52344;947.441;;;;
2020/01/04 00:07:50;;;;;;;13.7;7.4;;;;;;;3.52;80.44531;947.4213;;;;
2020/01/04 00:10:15;;;;;;;11.9;6.8;;;;;;;3.67;79.82324;947.4196;;;;
2020/01/04 00:12:40;;;;;;;10.2;5.8;;;;;;;3.7;79.91797;947.4196;;;;
2020/01/04 00:15:05;;;;;;;10;5.6;;;;;;;3.76;80.12109;947.4705;;;;
2020/01/04 00:17:31;;;;;;;12.5;7.5;;;;;;;3.63;81.05078;947.4106;;;;
2020/01/04 00:19:56;;;;;;;18;10.7;;;;;;;3.54;81.32715;947.457;;;;
2020/01/04 00:22:21;;;;;;;18.6;11.3;;;;;;;3.68;80.84766;947.3911;;;;
2020/01/04 00:24:46;;;;;;;16.5;10.6;;;;;;;3.85;80.27246;947.3558;;;;
2020/01/04 00:27:12;;;;;;;13.4;8.2;;;;;;;3.93;80.32031;947.2656;;;;
2020/01/04 00:31:03;;;;;;;12.6;7.7;;;;;;;3.84;80.60645;947.3463;;;;
2020/01/04 00:32:03;;;;;;;16.1;8.4;;;;;;;3.8;80.84668;947.3347;;;;
2020/01/04 00:34:27;;;;;;;18.5;9.8;;;;;;;3.86;80.00488;947.2869;;;;
2020/01/04 00:36:53;;;;;;;16;9.6;;;;;;;3.75;80.01855;947.2913;;;;
2020/01/04 00:39:18;;;;;;;18.5;11.2;;;;;;;3.81;80.35645;947.2255;;;;
2020/01/04 00:41:43;;;;;;;15.4;9.9;;;;;;;3.65;80.87598;947.3209;;;;
2020/01/04 00:44:08;;;;;;;16.8;10;;;;;;;3.66;80.80859;947.2372;;;;
2020/01/04 00:46:34;;;;;;;19.1;12.1;;;;;;;3.51;81.02832;947.2798;;;;
2020/01/04 00:48:59;;;;;;;18.1;11.5;;;;;;;3.52;80.74902;947.2676;;;;
2020/01/04 00:51:24;;;;;;;17.8;11.5;;;;;;;3.63;80.73633;947.1876;;;;
2020/01/04 00:53:49;;;;;;;15.7;10.9;;;;;;;3.72;80.39355;947.2047;;;;
2020/01/04 00:56:15;;;;;;;17.2;10.2;;;;;;;3.64;80.50195;947.2457;;;;
2020/01/04 00:58:40;;;;;;;17;10.8;;;;;;;3.67;80.60938;947.1385;;;;
2020/01/04 01:01:05;;;;;;;16.1;10.4;;;;;;;3.64;80.60449;947.0916;;;;
2020/01/04 01:03:30;;;;;;;17.6;9.8;;;;;;;3.56;81.02734;947.0589;;;;
2020/01/04 01:05:55;;;;;;;15.8;9.8;;;;;;;3.67;80.62109;947.0638;;;;
2020/01/04 01:08:21;;;;;;;16.5;9.8;;;;;;;3.75;80.41113;947.0329;;;;
2020/01/04 01:10:46;;;;;;;16.6;9.6;;;;;;;3.86;80.00488;946.9687;;;;
2020/01/04 01:13:11;;;;;;;15.7;9.9;;;;;;;3.84;80.16992;946.9952;;;;
2020/01/04 01:15:36;;;;;;;14.9;9.7;;;;;;;3.86;80.3418;947.0024;;;;
2020/01/04 01:18:02;;;;;;;17;10;;;;;;;3.78;80.54004;947.0385;;;;
2020/01/04 01:20:27;;;;;;;16.9;9.9;;;;;;;3.79;80.59863;946.9255;;;;
2020/01/04 01:22:52;;;;;;;17.5;11;;;;;;;3.88;80.53613;947.0245;;;;
2020/01/04 01:25:17;;;;;;;17.3;10.2;;;;;;;3.87;80.83887;946.9956;;;;
2020/01/04 01:27:42;;;;;;;16.2;9.9;;;;;;;3.91;80.50977;947.0339;;;;
2020/01/04 01:30:07;;;;;;;15.4;9.9;;;;;;;3.96;80.02344;947.0364;;;;
2020/01/04 01:32:33;;;;;;;14.8;9.1;;;;;;;3.86;80.4541;947.0164;;;;
2020/01/04 01:34:58;;;;;;;19.8;9.7;;;;;;;3.7;80.90723;946.9705;;;;
2020/01/04 01:37:23;;;;;;;18.6;11;;;;;;;3.64;82.35547;947.1795;;;;
2020/01/04 01:39:48;;;;;;;15.5;9.9;;;;;;;3.65;82.38184;947.1;;;;
2020/01/04 01:42:14;;;;;;;15.3;9.2;;;;;;;3.69;82.0625;947.1175;;;;
2020/01/04 01:44:39;;;;;;;15.6;9.8;;;;;;;3.67;82.86816;947.1117;;;;
2020/01/04 01:47:04;;;;;;;16;9.7;;;;;;;3.63;83.70215;947.1639;;;;
2020/01/04 01:49:34;;;;;;;17.8;10.7;;;;;;;3.68;82.65625;947.1688;;;;
2020/01/04 01:51:54;;;;;;;17.8;9.7;;;;;;;3.62;82.74512;947.2195;;;;
2020/01/04 01:54:19;;;;;;;17.6;9.7;;;;;;;3.51;83.40918;947.0595;;;;
2020/01/04 01:56:47;;;;;;;15.4;9.5;;;;;;;3.45;83.5332;947.2148;;;;
2020/01/04 01:59:10;;;;;;;13.1;8.2;;;;;;;3.55;83.6543;947.145;;;;
2020/01/04 02:01:35;;;;;;;16.6;8.6;;;;;;;3.65;83.29199;947.1369;;;;
2020/01/04 02:04:01;;;;;;;16.3;8.8;;;;;;;3.74;82.88086;947.182;;;;
2020/01/04 02:06:26;;;;;;;12.2;8;;;;;;;3.74;82.54492;947.2003;;;;
2020/01/04 02:08:51;;;;;;;15.1;8.8;;;;;;;3.79;82.28418;947.2476;;;;
2020/01/04 02:11:16;;;;;;;12;7.5;;;;;;;3.74;82.33203;947.0948;;;;
2020/01/04 02:13:41;;;;;;;13.5;7.3;;;;;;;3.77;82.34961;947.3004;;;;
2020/01/04 02:16:06;;;;;;;11.6;7;;;;;;;3.79;82.4541;947.2762;;;;
2020/01/04 02:18:31;;;;;;;12.6;7.2;;;;;;;3.94;82.40234;947.2614;;;;
2020/01/04 02:20:56;;;;;;;12.9;6.9;;;;;;;3.86;82.60156;947.3787;;;;
2020/01/04 02:23:21;;;;;;;11.9;6.4;;;;;;;3.89;82.46094;947.2277;;;;
2020/01/04 02:25:47;;;;;;;10.6;5.9;;;;;;;3.72;83.66406;947.3677;;;;
2020/01/04 02:28:12;;;;;;;8.2;5.1;;;;;;;3.75;84.83789;947.2856;;;;
2020/01/04 02:30:37;;;;;;;9.4;5.5;;;;;;;3.78;85.50781;947.3611;;;;
2020/01/04 02:33:02;;;;;;;8.7;5;;;;;;;3.66;86.71875;947.2427;;;;
2020/01/04 02:35:28;;;;;;;8.2;4.3;;;;;;;3.72;87.25977;947.2944;;;;
2020/01/04 02:37:53;;;;;;;6.6;3.8;;;;;;;3.91;87.03027;947.2964;;;;
2020/01/04 02:40:18;;;;;;;5.9;3.7;;;;;;;3.99;86.8877;947.3388;;;;
2020/01/04 02:42:43;;;;;;;5.9;3.7;;;;;;;4.17;85.55273;947.4139;;;;
2020/01/04 02:45:08;;;;;;;5.7;3.7;;;;;;;4.32;84.42383;947.329;;;;
2020/01/04 02:47:34;;;;;;;7.8;4;;;;;;;4.39;83.8418;947.2892;;;;
2020/01/04 02:49:59;;;;;;;5.2;3.5;;;;;;;;;;;;;
2020/01/04 02:52:24;;;;;;;5.8;3.7;;;;;;;;;;;;;
2020/01/04 02:54:49;;;;;;;7.5;4.6;;;;;;;;;;;;;
2020/01/04 02:57:15;;;;;;;8.7;4.9;;;;;;;;;;;;;
2020/01/04 02:59:40;;;;;;;7.8;4.4;;;;;;;;;;;;;
2020/01/04 03:02:05;;;;;;;6.3;4.2;;;;;;;;;;;;;
2020/01/04 03:04:31;;;;;;;9.8;4.3;;;;;;;;;;;;;
2020/01/04 03:06:56;;;;;;;5.1;3.7;;;;;;;;;;;;;
2020/01/04 03:09:21;;;;;;;5.8;3.9;;;;;;;;;;;;;
2020/01/04 03:11:47;;;;;;;6.4;3.6;;;;;;;;;;;;;
2020/01/04 03:14:25;;;;;;;5.4;3;;;;;;;;;;;;;
2020/01/04 03:16:37;;;;;;;5.6;3.2;;;;;;;;;;;;;
2020/01/04 03:19:02;;;;;;;5.7;3.5;;;;;;;;;;;;;
2020/01/04 03:21:27;;;;;;;4.7;2.9;;;;;;;;;;;;;
2020/01/04 03:23:52;;;;;;;4.3;2.6;;;;;;;;;;;;;
2020/01/04 03:26:17;;;;;;;3.3;2.4;;;;;;;;;;;;;
2020/01/04 03:28:42;;;;;;;4.5;2.6;;;;;;;;;;;;;
2020/01/04 03:31:08;;;;;;;5.8;3;;;;;;;;;;;;;
2020/01/04 03:33:33;;;;;;;3.4;2.2;;;;;;;;;;;;;
2020/01/04 03:35:58;;;;;;;6.1;2.2;;;;;;;;;;;;;
2020/01/04 03:38:23;;;;;;;3.7;2.2;;;;;;;;;;;;;
2020/01/04 03:40:48;;;;;;;3;2.2;;;;;;;;;;;;;
2020/01/04 03:43:14;;;;;;;5.5;2.5;;;;;;;;;;;;;
2020/01/04 03:45:39;;;;;;;4.2;2.2;;;;;;;;;;;;;
2020/01/04 03:48:04;;;;;;;5.2;2.1;;;;;;;;;;;;;
2020/01/04 03:50:29;;;;;;;4.9;2.2;;;;;;;;;;;;;
2020/01/04 03:52:54;;;;;;;3.2;2;;;;;;;;;;;;;
2020/01/04 03:55:19;;;;;;;2.4;1.8;;;;;;;;;;;;;
2020/01/04 03:57:44;;;;;;;3.6;1.8;;;;;;;;;;;;;
2020/01/04 04:02:29;;;;;;;3.1;1.8;;;;;;;4.87;82.73242;947.0709;;;;
2020/01/04 04:04:55;;;;;;;3.5;1.9;;;;;;;4.87;82.23438;947.0753;;;;
2020/01/04 04:07:20;;;;;;;3.5;1.7;;;;;;;4.82;82.33789;947.123;;;;
2020/01/04 04:09:45;;;;;;;5.5;2.2;;;;;;;4.82;82.24805;947.1923;;;;
2020/01/04 04:12:10;;;;;;;4.7;2;;;;;;;4.77;82.84473;947.3063;;;;
2020/01/04 04:14:35;;;;;;;5.8;1.9;;;;;;;4.78;83.19531;947.2657;;;;
2020/01/04 04:17:00;;;;;;;3.2;2.1;;;;;;;4.86;83.61719;947.389;;;;
2020/01/04 04:19:25;;;;;;;4.3;2.1;;;;;;;;;;;;;
2020/01/04 04:21:50;;;;;;;4;2.1;;;;;;;;;;;;;
2020/01/04 04:24:15;;;;;;;3.5;1.8;;;;;;;;;;;;;
2020/01/04 04:26:40;;;;;;;8.1;2.2;;;;;;;;;;;;;
2020/01/04 04:29:05;;;;;;;6.6;2.2;;;;;;;;;;;;;
2020/01/04 04:31:31;;;;;;;4.4;1.9;;;;;;;;;;;;;
2020/01/04 04:33:56;;;;;;;3.3;1.8;;;;;;;;;;;;;
2020/01/04 04:36:22;;;;;;;4.4;2;;;;;;;;;;;;;
2020/01/04 04:39:04;;;;;;;4.6;2.1;;;;;;;;;;;;;
2020/01/04 04:41:11;;;;;;;7.7;2.3;;;;;;;;;;;;;
2020/01/04 04:43:36;;;;;;;3.9;2.1;;;;;;;;;;;;;
2020/01/04 04:46:02;;;;;;;2.8;1.7;;;;;;;;;;;;;
2020/01/04 04:48:27;;;;;;;4;1.8;;;;;;;;;;;;;
2020/01/04 04:50:52;;;;;;;4;1.8;;;;;;;;;;;;;
2020/01/04 04:53:17;;;;;;;7.2;2.2;;;;;;;;;;;;;
2020/01/04 04:55:42;;;;;;;4.9;2;;;;;;;;;;;;;
2020/01/04 04:58:07;;;;;;;4;1.8;;;;;;;;;;;;;
2020/01/04 05:00:32;;;;;;;4.1;1.9;;;;;;;;;;;;;
2020/01/04 05:02:57;;;;;;;3.3;1.9;;;;;;;;;;;;;
2020/01/04 05:05:22;;;;;;;6.2;2.2;;;;;;;;;;;;;
2020/01/04 05:07:47;;;;;;;3.5;2;;;;;;;;;;;;;
2020/01/04 05:10:12;;;;;;;8.8;2.4;;;;;;;;;;;;;
2020/01/04 05:12:37;;;;;;;4;1.9;;;;;;;;;;;;;
2020/01/04 05:15:02;;;;;;;3.9;2;;;;;;;;;;;;;
2020/01/04 05:17:28;;;;;;;6;2.1;;;;;;;;;;;;;
2020/01/04 05:19:53;;;;;;;10.8;2.8;;;;;;;;;;;;;
2020/01/04 05:22:18;;;;;;;7.2;2.8;;;;;;;;;;;;;
2020/01/04 05:24:43;;;;;;;10.1;4.4;;;;;;;;;;;;;
2020/01/04 05:27:08;;;;;;;8.4;3.6;;;;;;;;;;;;;
2020/01/04 05:29:33;;;;;;;12.7;4.2;;;;;;;;;;;;;
2020/01/04 05:32:09;;;;;;;4.4;2.4;;;;;;;;;;;;;
2020/01/04 05:34:25;;;;;;;7.8;3;;;;;;;;;;;;;
2020/01/04 05:36:49;;;;;;;7.2;3.4;;;;;;;;;;;;;
2020/01/04 05:39:14;;;;;;;7.3;3;;;;;;;;;;;;;
2020/01/04 05:41:39;;;;;;;5.7;3.1;;;;;;;;;;;;;
2020/01/04 05:44:04;;;;;;;4.6;3.1;;;;;;;;;;;;;
2020/01/04 05:46:29;;;;;;;8.7;4.4;;;;;;;;;;;;;
2020/01/04 05:48:55;;;;;;;7.1;3.5;;;;;;;;;;;;;
2020/01/04 05:51:20;;;;;;;6.4;3.1;;;;;;;;;;;;;
2020/01/04 05:53:45;;;;;;;7.9;3.2;;;;;;;;;;;;;
2020/01/04 05:56:10;;;;;;;4.2;2.4;;;;;;;;;;;;;
2020/01/04 05:58:35;;;;;;;5.5;2.4;;;;;;;;;;;;;
2020/01/04 06:01:00;;;;;;;8.8;4.6;;;;;;;;;;;;;
2020/01/04 06:03:25;;;;;;;8.8;4.7;;;;;;;;;;;;;
2020/01/04 06:05:50;;;;;;;5.1;3.4;;;;;;;;;;;;;
2020/01/04 06:08:15;;;;;;;6.2;5;;;;;;;;;;;;;
2020/01/04 06:10:40;;;;;;;8.3;5.1;;;;;;;;;;;;;
2020/01/04 06:13:05;;;;;;;8;4.7;;;;;;;;;;;;;
2020/01/04 06:15:31;;;;;;;6.6;3.6;;;;;;;;;;;;;
2020/01/04 06:17:56;;;;;;;6;4.4;;;;;;;;;;;;;
2020/01/04 06:20:21;;;;;;;8.4;3.9;;;;;;;;;;;;;
2020/01/04 06:22:46;;;;;;;7.6;3.3;;;;;;;;;;;;;
2020/01/04 06:25:12;;;;;;;6.4;3.3;;;;;;;;;;;;;
2020/01/04 06:27:37;;;;;;;4.1;2.6;;;;;;;;;;;;;
2020/01/04 06:30:02;;;;;;;4.9;2.6;;;;;;;;;;;;;
2020/01/04 06:32:27;;;;;;;9.2;5.3;;;;;;;;;;;;;
2020/01/04 06:34:52;;;;;;;10.3;4.8;;;;;;;;;;;;;
2020/01/04 06:37:17;;;;;;;12.6;6.4;;;;;;;;;;;;;
2020/01/04 06:39:42;;;;;;;15.9;7.6;;;;;;;;;;;;;
2020/01/04 06:42:08;;;;;;;11.3;8.1;;;;;;;;;;;;;
2020/01/04 06:44:32;;;;;;;17.5;9;;;;;;;;;;;;;
2020/01/04 06:46:58;;;;;;;15.6;9.2;;;;;;;;;;;;;
2020/01/04 06:49:23;;;;;;;15.5;9.5;;;;;;;;;;;;;
2020/01/04 06:51:48;;;;;;;13.7;7.8;;;;;;;;;;;;;
2020/01/04 06:54:13;;;;;;;7.7;5.2;;;;;;;;;;;;;
2020/01/04 06:56:38;;;;;;;13.7;6.6;;;;;;;;;;;;;
2020/01/04 06:59:03;;;;;;;12.6;7.2;;;;;;;;;;;;;
2020/01/04 07:01:28;;;;;;;14.2;6.5;;;;;;;;;;;;;
2020/01/04 07:03:53;;;;;;;12.9;6.1;;;;;;;;;;;;;
2020/01/04 07:06:18;;;;;;;9.9;5.7;;;;;;;;;;;;;
2020/01/04 07:08:43;;;;;;;8.8;4.2;;;;;;;;;;;;;
2020/01/04 07:11:08;;;;;;;13.8;4.9;;;;;;;;;;;;;
2020/01/04 07:13:34;;;;;;;11.6;6;;;;;;;;;;;;;
2020/01/04 07:15:59;;;;;;;19.2;9.6;;;;;;;;;;;;;
2020/01/04 07:18:24;;;;;;;11.6;6.3;;;;;;;;;;;;;
2020/01/04 07:20:49;;;;;;;8.2;3.3;;;;;;;;;;;;;
2020/01/04 07:23:14;;;;;;;13.4;8.5;;;;;;;;;;;;;
2020/01/04 07:25:39;;;;;;;17.7;7.4;;;;;;;;;;;;;
2020/01/04 07:28:04;;;;;;;11.5;6;;;;;;;;;;;;;
2020/01/04 07:30:29;;;;;;;10.6;6.1;;;;;;;;;;;;;
2020/01/04 07:32:55;;;;;;;9.7;4.9;;;;;;;;;;;;;
2020/01/04 07:35:20;;;;;;;10.4;4.9;;;;;;;;;;;;;
2020/01/04 07:37:45;;;;;;;7.7;3;;;;;;;;;;;;;
2020/01/04 07:40:10;;;;;;;13.6;8.6;;;;;;;;;;;;;
2020/01/04 07:42:35;;;;;;;15.7;10;;;;;;;;;;;;;
2020/01/04 07:45:00;;;;;;;19.7;11.1;;;;;;;;;;;;;
2020/01/04 07:47:25;;;;;;;18.1;11.5;;;;;;;;;;;;;
2020/01/04 07:49:51;;;;;;;17.7;10.5;;;;;;;;;;;;;
2020/01/04 07:52:16;;;;;;;21.2;16;;;;;;;;;;;;;
2020/01/04 07:54:41;;;;;;;27;18.5;;;;;;;;;;;;;
2020/01/04 07:57:06;;;;;;;26.8;17.5;;;;;;;;;;;;;
2020/01/04 07:59:32;;;;;;;23.5;16.2;;;;;;;;;;;;;
2020/01/04 08:01:58;;;;;;;26.5;16;;;;;;;;;;;;;
2020/01/04 08:04:22;;;;;;;24.1;16.4;;;;;;;;;;;;;
2020/01/04 08:06:47;;;;;;;24.5;16;;;;;;;;;;;;;
2020/01/04 08:09:13;;;;;;;36.1;23.3;;;;;;;;;;;;;
2020/01/04 08:11:38;;;;;;;37.2;25.3;;;;;;;;;;;;;
2020/01/04 08:14:03;;;;;;;37.5;25.3;;;;;;;;;;;;;
2020/01/04 08:16:28;;;;;;;33.1;22.7;;;;;;;;;;;;;
2020/01/04 08:18:53;;;;;;;30.2;21.1;;;;;;;;;;;;;
2020/01/04 08:21:19;;;;;;;33.1;26.2;;;;;;;;;;;;;
2020/01/04 08:23:44;;;;;;;41.8;24;;;;;;;;;;;;;
2020/01/04 08:26:09;;;;;;;32.7;20.4;;;;;;;;;;;;;
2020/01/04 08:28:34;;;;;;;28.3;19.2;;;;;;;;;;;;;
2020/01/04 08:30:59;;;;;;;26.8;19.3;;;;;;;;;;;;;
2020/01/04 08:33:24;;;;;;;26.3;17.4;;;;;;;;;;;;;
2020/01/04 08:35:49;;;;;;;24.6;16.5;;;;;;;;;;;;;
2020/01/04 08:38:14;;;;;;;28.3;20.2;;;;;;;;;;;;;
2020/01/04 08:40:39;;;;;;;27.7;19.2;;;;;;;;;;;;;
2020/01/04 08:43:05;;;;;;;26;17.2;;;;;;;;;;;;;
2020/01/04 08:45:30;;;;;;;21.4;14.7;;;;;;;;;;;;;
2020/01/04 08:47:55;;;;;;;14.3;11.1;;;;;;;;;;;;;
2020/01/04 08:50:20;;;;;;;20.5;12.9;;;;;;;;;;;;;
2020/01/04 08:52:45;;;;;;;18.9;13.5;;;;;;;;;;;;;
2020/01/04 08:55:10;;;;;;;19.2;13.9;;;;;;;;;;;;;
2020/01/04 08:57:35;;;;;;;15.7;12;;;;;;;;;;;;;
2020/01/04 09:00:00;;;;;;;14.7;10.7;;;;;;;;;;;;;
2020/01/04 09:02:26;;;;;;;10.1;6.6;;;;;;;;;;;;;
2020/01/04 09:04:51;;;;;;;11.1;7.1;;;;;;;;;;;;;
2020/01/04 09:07:16;;;;;;;17.2;8.3;;;;;;;;;;;;;
2020/01/04 09:09:41;;;;;;;25.6;12.3;;;;;;;;;;;;;
2020/01/04 09:12:06;;;;;;;20.7;10.6;;;;;;;;;;;;;
2020/01/04 09:14:31;;;;;;;18.9;10.9;;;;;;;;;;;;;
2020/01/04 09:16:56;;;;;;;17.9;13;;;;;;;;;;;;;
2020/01/04 09:19:22;;;;;;;12;8.9;;;;;;;;;;;;;
2020/01/04 09:21:47;;;;;;;13.8;7.7;;;;;;;;;;;;;
2020/01/04 09:24:12;;;;;;;13.1;6.9;;;;;;;;;;;;;
2020/01/04 09:26:37;;;;;;;11.2;6.6;;;;;;;;;;;;;
2020/01/04 09:29:02;;;;;;;12.8;8.2;;;;;;;;;;;;;
2020/01/04 09:31:27;;;;;;;13.8;8.4;;;;;;;;;;;;;
2020/01/04 09:33:52;;;;;;;15.2;8.9;;;;;;;;;;;;;
2020/01/04 09:36:17;;;;;;;14.4;7.5;;;;;;;;;;;;;
2020/01/04 09:38:42;;;;;;;14.1;7.2;;;;;;;;;;;;;
2020/01/04 09:41:07;;;;;;;11.3;8.3;;;;;;;;;;;;;
2020/01/04 09:43:33;;;;;;;10.9;7;;;;;;;;;;;;;
2020/01/04 09:45:58;;;;;;;8.8;7;;;;;;;;;;;;;
2020/01/04 09:48:23;;;;;;;10;7.3;;;;;;;;;;;;;
2020/01/04 09:50:48;;;;;;;8.9;6.3;;;;;;;;;;;;;
2020/01/04 09:53:13;;;;;;;7.6;4.7;;;;;;;;;;;;;
2020/01/04 09:55:39;;;;;;;8.2;5.3;;;;;;;;;;;;;
2020/01/04 09:58:04;;;;;;;12.9;9.3;;;;;;;;;;;;;
2020/01/04 10:00:43;;;;;;;10.1;6.5;;;;;;;;;;;;;
2020/01/04 10:03:00;;;;;;;15.2;9.5;;;;;;;;;;;;;
2020/01/04 10:05:20;;;;;;;22;11.4;;;;;;;;;;;;;
2020/01/04 10:07:44;;;;;;;15.7;9.1;;;;;;;;;;;;;
2020/01/04 10:10:10;;;;;;;12.1;7.9;;;;;;;;;;;;;
2020/01/04 10:12:35;;;;;;;23;14;;;;;;;;;;;;;
2020/01/04 10:15:00;;;;;;;15;8.9;;;;;;;;;;;;;
2020/01/04 10:17:25;;;;;;;9.5;6.7;;;;;;;;;;;;;
2020/01/04 10:19:50;;;;;;;10.6;6.5;;;;;;;;;;;;;
2020/01/04 10:22:15;;;;;;;8.6;5.6;;;;;;;;;;;;;
2020/01/04 10:24:40;;;;;;;7.4;4.6;;;;;;;;;;;;;
2020/01/04 10:27:05;;;;;;;6.8;4.5;;;;;;;;;;;;;
2020/01/04 10:29:30;;;;;;;15.2;9.7;;;;;;;;;;;;;
2020/01/04 10:31:55;;;;;;;11.9;7.5;;;;;;;;;;;;;
2020/01/04 10:34:20;;;;;;;9.7;6.2;;;;;;;;;;;;;
2020/01/04 10:36:45;;;;;;;12.7;5.5;;;;;;;;;;;;;
2020/01/04 10:39:11;;;;;;;6.4;3.7;;;;;;;;;;;;;
2020/01/04 10:41:36;;;;;;;4.8;2.8;;;;;;;;;;;;;
2020/01/04 10:44:01;;;;;;;1.8;1.2;;;;;;;;;;;;;
2020/01/04 10:46:26;;;;;;;2;1.2;;;;;;;;;;;;;
2020/01/04 10:48:51;;;;;;;1.3;1.1;;;;;;;;;;;;;
2020/01/04 10:51:16;;;;;;;2.3;1.2;;;;;;;;;;;;;
2020/01/04 10:53:41;;;;;;;1.2;1.1;;;;;;;;;;;;;
2020/01/04 10:56:06;;;;;;;2;1.2;;;;;;;;;;;;;
2020/01/04 10:58:31;;;;;;;2.2;1;;;;;;;;;;;;;
2020/01/04 11:00:57;;;;;;;1.8;1;;;;;;;;;;;;;
2020/01/04 11:03:21;;;;;;;1.7;1;;;;;;;;;;;;;
2020/01/04 11:05:47;;;;;;;1.1;0.9;;;;;;;;;;;;;
2020/01/04 11:08:12;;;;;;;2.2;1.5;;;;;;;;;;;;;
2020/01/04 11:13:02;;;;;;;1.9;1.2;;;;;;;;;;;;;
2020/01/04 11:15:27;;;;;;;2.5;1.1;;;;;;;;;;;;;
2020/01/04 11:17:52;;;;;;;2.4;1.2;;;;;;;;;;;;;
2020/01/04 11:20:17;;;;;;;1.6;0.7;;;;;;;;;;;;;
2020/01/04 11:22:42;;;;;;;1.8;0.7;;;;;;;;;;;;;
2020/01/04 11:25:08;;;;;;;1.2;0.7;;;;;;;;;;;;;
2020/01/04 11:27:33;;;;;;;0.6;0.6;;;;;;;;;;;;;
2020/01/04 11:29:58;;;;;;;2.6;1;;;;;;;;;;;;;
2020/01/04 11:32:23;;;;;;;1.5;1;;;;;;;;;;;;;
2020/01/04 11:34:48;;;;;;;0.7;0.5;;;;;;;;;;;;;
2020/01/04 11:37:13;;;;;;;1.1;0.5;;;;;;;;;;;;;
2020/01/04 11:39:38;;;;;;;0.8;0.6;;;;;;;;;;;;;
2020/01/04 11:42:03;;;;;;;0.6;0.6;;;;;;;;;;;;;
2020/01/04 11:44:28;;;;;;;1.1;0.7;;;;;;;;;;;;;
2020/01/04 11:46:53;;;;;;;2.5;1.4;;;;;;;;;;;;;
2020/01/04 11:49:18;;;;;;;0.7;0.7;;;;;;;;;;;;;
2020/01/04 11:51:43;;;;;;;1.2;0.9;;;;;;;;;;;;;
2020/01/04 11:54:08;;;;;;;1.8;1.2;;;;;;;;;;;;;
2020/01/04 11:56:34;;;;;;;0.9;0.8;;;;;;;;;;;;;
2020/01/04 11:58:59;;;;;;;1.3;0.9;;;;;;;;;;;;;
2020/01/04 12:01:24;;;;;;;2.7;1.5;;;;;;;;;;;;;
2020/01/04 12:03:49;;;;;;;1.5;1.1;;;;;;;;;;;;;
2020/01/04 12:06:14;;;;;;;1.5;1.2;;;;;;;;;;;;;
2020/01/04 12:08:39;;;;;;;1.9;1.1;;;;;;;;;;;;;
2020/01/04 12:11:04;;;;;;;1.7;1.1;;;;;;;;;;;;;
2020/01/04 12:13:29;;;;;;;2;1.1;;;;;;;;;;;;;
2020/01/04 12:15:54;;;;;;;4.2;1.7;;;;;;;;;;;;;
2020/01/04 12:18:19;;;;;;;2.2;1.4;;;;;;;;;;;;;
2020/01/04 12:20:45;;;;;;;1.3;1;;;;;;;;;;;;;
2020/01/04 12:23:10;;;;;;;1.3;0.9;;;;;;;;;;;;;
2020/01/04 12:25:35;;;;;;;2.4;1.6;;;;;;;;;;;;;
2020/01/04 12:28:00;;;;;;;1.3;0.9;;;;;;;;;;;;;
2020/01/04 12:30:25;;;;;;;1.6;1.1;;;;;;;;;;;;;
2020/01/04 12:32:51;;;;;;;3.3;2;;;;;;;;;;;;;
2020/01/04 12:35:15;;;;;;;1.3;1;;;;;;;;;;;;;
2020/01/04 12:37:40;;;;;;;1.2;1.1;;;;;;;;;;;;;
2020/01/04 12:40:05;;;;;;;0.8;0.8;;;;;;;;;;;;;
2020/01/04 12:42:31;;;;;;;1.2;0.8;;;;;;;;;;;;;
2020/01/04 12:44:56;;;;;;;1.2;1;;;;;;;;;;;;;
2020/01/04 12:47:21;;;;;;;1.6;0.9;;;;;;;;;;;;;
2020/01/04 12:49:46;;;;;;;2.4;0.9;;;;;;;;;;;;;
2020/01/04 12:52:11;;;;;;;0.8;0.7;;;;;;;;;;;;;
2020/01/04 12:54:36;;;;;;;1.6;1.3;;;;;;;;;;;;;
2020/01/04 12:57:01;;;;;;;1.9;1.5;;;;;;;;;;;;;
2020/01/04 12:59:26;;;;;;;2.4;1.9;;;;;;;;;;;;;
2020/01/04 13:01:51;;;;;;;2.7;1.1;;;;;;;;;;;;;
2020/01/04 13:04:16;;;;;;;2;1.1;;;;;;;;;;;;;
2020/01/04 13:06:41;;;;;;;2.1;1.1;;;;;;;;;;;;;
2020/01/04 13:09:06;;;;;;;2.1;1.5;;;;;;;;;;;;;
2020/01/04 13:11:32;;;;;;;10.2;5.9;;;;;;;;;;;;;
2020/01/04 13:13:57;;;;;;;2.7;1.5;;;;;;;;;;;;;
2020/01/04 13:16:22;;;;;;;6.2;3.7;;;;;;;;;;;;;
2020/01/04 13:18:47;;;;;;;2.8;1.5;;;;;;;;;;;;;
2020/01/04 13:21:12;;;;;;;2.5;1.3;;;;;;;;;;;;;
2020/01/04 13:23:37;;;;;;;1.7;1.3;;;;;;;;;;;;;
2020/01/04 13:26:02;;;;;;;2.1;1.5;;;;;;;;;;;;;
2020/01/04 13:28:28;;;;;;;2.2;1.3;;;;;;;;;;;;;
2020/01/04 13:30:53;;;;;;;1.8;1.4;;;;;;;;;;;;;
2020/01/04 13:33:18;;;;;;;2.7;1.4;;;;;;;;;;;;;
2020/01/04 13:35:43;;;;;;;2;1.1;;;;;;;;;;;;;
2020/01/04 13:38:08;;;;;;;3;1.8;;;;;;;;;;;;;
2020/01/04 13:40:33;;;;;;;3.3;1.9;;;;;;;;;;;;;
2020/01/04 13:42:58;;;;;;;3.8;2.3;;;;;;;;;;;;;
2020/01/04 13:45:23;;;;;;;5;3.2;;;;;;;;;;;;;
2020/01/04 13:47:48;;;;;;;3.5;2.4;;;;;;;;;;;;;
2020/01/04 13:50:14;;;;;;;4.5;2;;;;;;;;;;;;;
2020/01/04 13:52:39;;;;;;;2.6;1.7;;;;;;;;;;;;;
2020/01/04 13:55:10;;;;;;;3;2;;;;;;;;;;;;;
2020/01/04 13:57:29;;;;;;;3.9;2.4;;;;;;;;;;;;;
2020/01/04 13:59:54;;;;;;;4.7;3.3;;;;;;;;;;;;;
2020/01/04 14:02:19;;;;;;;3.8;2.6;;;;;;;;;;;;;
2020/01/04 14:04:45;;;;;;;6.2;3.5;;;;;;;;;;;;;
2020/01/04 14:07:10;;;;;;;6;3.4;;;;;;;;;;;;;
2020/01/04 14:09:35;;;;;;;4.1;3;;;;;;;;;;;;;
2020/01/04 14:12:00;;;;;;;2.5;1.5;;;;;;;;;;;;;
2020/01/04 14:14:25;;;;;;;3.2;1.4;;;;;;;;;;;;;
2020/01/04 14:16:50;;;;;;;3.7;2.7;;;;;;;;;;;;;
2020/01/04 14:19:15;;;;;;;4.9;2.9;;;;;;;;;;;;;
2020/01/04 14:21:40;;;;;;;16.5;9;;;;;;;;;;;;;
2020/01/04 14:24:05;;;;;;;125.5;59.4;;;;;;;;;;;;;
2020/01/04 14:26:30;;;;;;;57.4;29.1;;;;;;;;;;;;;
2020/01/04 14:28:55;;;;;;;23.1;13.7;;;;;;;;;;;;;
2020/01/04 14:31:21;;;;;;;11.2;6.3;;;;;;;;;;;;;
2020/01/04 14:33:46;;;;;;;10.3;7.1;;;;;;;;;;;;;
2020/01/04 14:36:11;;;;;;;1.7;1.5;;;;;;;;;;;;;
2020/01/04 14:41:01;;;;;;;1.8;1.3;;;;;;;;;;;;;
2020/01/04 14:43:26;;;;;;;4;2.7;;;;;;;;;;;;;
2020/01/04 14:45:51;;;;;;;4.1;2.3;;;;;;;;;;;;;
2020/01/04 14:48:16;;;;;;;4.8;2.9;;;;;;;;;;;;;
2020/01/04 14:50:42;;;;;;;14.6;8.8;;;;;;;;;;;;;
2020/01/04 14:53:07;;;;;;;15.9;10.9;;;;;;;;;;;;;
2020/01/04 14:55:32;;;;;;;17.5;13.6;;;;;;;;;;;;;
2020/01/04 14:57:57;;;;;;;6.9;3.4;;;;;;;;;;;;;
2020/01/04 15:00:22;;;;;;;4.7;3.4;;;;;;;;;;;;;
2020/01/04 15:02:48;;;;;;;2.3;1.6;;;;;;;;;;;;;
2020/01/04 15:05:12;;;;;;;2.2;1.6;;;;;;;;;;;;;
2020/01/04 15:07:37;;;;;;;3.8;1.6;;;;;;;;;;;;;
2020/01/04 15:10:02;;;;;;;4.3;1.9;;;;;;;;;;;;;
2020/01/04 15:12:27;;;;;;;3.4;1.8;;;;;;;;;;;;;
2020/01/04 15:14:52;;;;;;;3.2;2.3;;;;;;;;;;;;;
2020/01/04 15:17:18;;;;;;;3.6;2.4;;;;;;;;;;;;;
2020/01/04 15:19:43;;;;;;;6.3;3.2;;;;;;;;;;;;;
2020/01/04 15:22:08;;;;;;;6.8;3.8;;;;;;;;;;;;;
2020/01/04 15:24:33;;;;;;;9.7;4.9;;;;;;;;;;;;;
2020/01/04 15:26:58;;;;;;;8.5;4.6;;;;;;;;;;;;;
2020/01/04 15:29:23;;;;;;;10.2;5.1;;;;;;;;;;;;;
2020/01/04 15:31:48;;;;;;;7.2;4.8;;;;;;;;;;;;;
2020/01/04 15:34:13;;;;;;;12;7;;;;;;;;;;;;;
2020/01/04 15:36:38;;;;;;;51.5;36.7;;;;;;;;;;;;;
2020/01/04 15:39:04;;;;;;;15.6;11.2;;;;;;;;;;;;;
2020/01/04 15:41:28;;;;;;;10;7;;;;;;;;;;;;;
2020/01/04 15:43:54;;;;;;;27;16.2;;;;;;;;;;;;;
2020/01/04 15:46:19;;;;;;;58.6;30.5;;;;;;;;;;;;;
2020/01/04 15:48:44;;;;;;;26.5;14.4;;;;;;;;;;;;;
2020/01/04 15:51:09;;;;;;;18.5;10.9;;;;;;;;;;;;;
2020/01/04 15:53:34;;;;;;;9.7;6.7;;;;;;;;;;;;;
2020/01/04 15:55:59;;;;;;;11.8;7.1;;;;;;;;;;;;;
2020/01/04 15:58:24;;;;;;;13;9.1;;;;;;;;;;;;;
2020/01/04 16:00:50;;;;;;;22.3;13.9;;;;;;;;;;;;;
2020/01/04 16:03:15;;;;;;;31.1;18.5;;;;;;;;;;;;;
2020/01/04 16:05:40;;;;;;;9.3;5.9;;;;;;;;;;;;;
2020/01/04 16:08:05;;;;;;;50;25.9;;;;;;;;;;;;;
2020/01/04 16:10:30;;;;;;;16.4;11.6;;;;;;;;;;;;;
2020/01/04 16:12:55;;;;;;;17.7;11.5;;;;;;;;;;;;;
2020/01/04 16:15:20;;;;;;;20.1;12.7;;;;;;;;;;;;;
2020/01/04 16:17:45;;;;;;;54.7;31.2;;;;;;;;;;;;;
2020/01/04 16:20:11;;;;;;;38.7;23.4;;;;;;;;;;;;;
2020/01/04 16:22:36;;;;;;;38;27.9;;;;;;;;;;;;;
2020/01/04 16:25:01;;;;;;;55.6;42.7;;;;;;;;;;;;;
2020/01/04 16:27:26;;;;;;;34.7;26.2;;;;;;;;;;;;;
2020/01/04 16:29:51;;;;;;;24.7;20.3;;;;;;;;;;;;;
2020/01/04 16:32:16;;;;;;;23.4;16.8;;;;;;;;;;;;;
2020/01/04 16:34:42;;;;;;;15.9;11.7;;;;;;;;;;;;;
2020/01/04 16:37:07;;;;;;;15.8;11;;;;;;;;;;;;;
2020/01/04 16:39:32;;;;;;;24.7;18.1;;;;;;;;;;;;;
2020/01/04 16:41:57;;;;;;;27.2;18.7;;;;;;;;;;;;;
2020/01/04 16:44:22;;;;;;;24;20.6;;;;;;;;;;;;;
2020/01/04 16:47:00;;;;;;;20.5;14.3;;;;;;;;;;;;;
2020/01/04 16:51:52;;;;;;;10.4;7.8;;;;;;;;;;;;;
2020/01/04 16:56:29;;;;;;;39.6;31.7;;;;;;;;;;;;;
2020/01/04 16:58:53;;;;;;;11.9;5.6;;;;;;;;;;;;;
2020/01/04 17:01:18;;;;;;;9.3;5.2;;;;;;;;;;;;;
2020/01/04 17:03:44;;;;;;;7.5;5.6;;;;;;;;;;;;;
2020/01/04 17:06:08;;;;;;;12.5;7;;;;;;;;;;;;;
2020/01/04 17:08:34;;;;;;;12.5;8.3;;;;;;;;;;;;;
2020/01/04 17:11:00;;;;;;;11.9;7.8;;;;;;;;;;;;;
2020/01/04 17:13:24;;;;;;;13.9;10.2;;;;;;;;;;;;;
2020/01/04 17:15:49;;;;;;;33.9;21.5;;;;;;;;;;;;;
2020/01/04 17:18:14;;;;;;;17;12.6;;;;;;;;;;;;;
2020/01/04 17:20:39;;;;;;;24.1;16.4;;;;;;;;;;;;;
2020/01/04 17:23:04;;;;;;;16.2;10.9;;;;;;;;;;;;;
2020/01/04 17:25:29;;;;;;;27.6;19.5;;;;;;;;;;;;;
2020/01/04 17:27:55;;;;;;;25.3;18.3;;;;;;;;;;;;;
2020/01/04 17:30:20;;;;;;;24.8;16.3;;;;;;;;;;;;;
2020/01/04 17:32:45;;;;;;;21.3;15.9;;;;;;;;;;;;;
2020/01/04 17:35:10;;;;;;;25;16.3;;;;;;;;;;;;;
2020/01/04 17:37:36;;;;;;;11.3;8.1;;;;;;;;;;;;;
2020/01/04 17:40:01;;;;;;;15;10.6;;;;;;;;;;;;;
2020/01/04 17:42:26;;;;;;;17.8;11.5;;;;;;;;;;;;;
2020/01/04 17:44:51;;;;;;;14.1;10.1;;;;;;;;;;;;;
2020/01/04 17:47:16;;;;;;;14.5;8.9;;;;;;;;;;;;;
2020/01/04 17:49:41;;;;;;;10.8;7.5;;;;;;;;;;;;;
2020/01/04 17:52:06;;;;;;;89.4;53.9;;;;;;;;;;;;;
2020/01/04 17:54:31;;;;;;;45.3;30.3;;;;;;;;;;;;;
2020/01/04 17:56:56;;;;;;;27.8;20.8;;;;;;;;;;;;;
2020/01/04 17:59:21;;;;;;;5.8;3.7;;;;;;;;;;;;;
2020/01/04 18:01:47;;;;;;;5.9;4.6;;;;;;;;;;;;;
2020/01/04 18:04:12;;;;;;;5.7;3.7;;;;;;;;;;;;;
2020/01/04 18:06:37;;;;;;;4.9;4.4;;;;;;;;;;;;;
2020/01/04 18:09:02;;;;;;;7.9;5.2;;;;;;;;;;;;;
2020/01/04 18:11:27;;;;;;;6.7;4.9;;;;;;;;;;;;;
2020/01/04 18:13:52;;;;;;;11.3;6.7;;;;;;;;;;;;;
2020/01/04 18:16:17;;;;;;;16;12.4;;;;;;;;;;;;;
2020/01/04 18:18:42;;;;;;;14.5;10.8;;;;;;;;;;;;;
2020/01/04 18:21:08;;;;;;;16.5;12.9;;;;;;;;;;;;;
2020/01/04 18:23:33;;;;;;;16.3;11.5;;;;;;;;;;;;;
2020/01/04 18:25:58;;;;;;;14.1;8.6;;;;;;;;;;;;;
2020/01/04 18:28:23;;;;;;;17.9;13;;;;;;;;;;;;;
2020/01/04 18:30:48;;;;;;;37;25.2;;;;;;;;;;;;;
2020/01/04 18:33:13;;;;;;;15.9;12;;;;;;;;;;;;;
2020/01/04 18:35:38;;;;;;;25.3;15.9;;;;;;;;;;;;;
2020/01/04 18:38:03;;;;;;;22.9;14.9;;;;;;;;;;;;;
2020/01/04 18:40:29;;;;;;;25.4;15.6;;;;;;;;;;;;;
2020/01/04 18:43:08;;;;;;;14.5;9.3;;;;;;;;;;;;;
2020/01/04 18:45:25;;;;;;;10.7;7.4;;;;;;;;;;;;;
2020/01/04 18:47:44;;;;;;;9.4;6.7;;;;;;;;;;;;;
2020/01/04 18:50:09;;;;;;;7.8;5;;;;;;;;;;;;;
2020/01/04 18:52:34;;;;;;;8.2;4.4;;;;;;;;;;;;;
2020/01/04 18:54:59;;;;;;;8.1;4.1;;;;;;;;;;;;;
2020/01/04 18:57:24;;;;;;;53.5;31.9;;;;;;;;;;;;;
2020/01/04 18:59:49;;;;;;;9.3;5.9;;;;;;;;;;;;;
2020/01/04 19:02:14;;;;;;;6.7;4.5;;;;;;;;;;;;;
2020/01/04 19:04:40;;;;;;;9.2;6.3;;;;;;;;;;;;;
2020/01/04 19:07:05;;;;;;;18.2;12.4;;;;;;;;;;;;;